sensor_id;sensor_type;location;lat;lon;timestamp;pressure;altitude;pressure_sealevel;temperature;humidity
75231;BME280;63814;50.118;8.714;2022-12-07T00:01:15;100407.56;;;2.84;78.73
75231;BME280;63814;50.118;8.714;2022-12-07T00:03:43;100405.56;;;2.95;78.04
75231;BME280;63814;50.118;8.714;2022-12-07T00:06:12;100403.94;;;2.91;78.21
75231;BME280;63814;50.118;8.714;2022-12-07T00:08:40;100358.19;;;2.52;78.39
75231;BME280;63814;50.118;8.714;2022-12-07T00:11:08;100410.84;;;2.91;77.86
75231;BME280;63814;50.118;8.714;2022-12-07T00:13:36;100399.59;;;2.92;78.10
75231;BME280;63814;50.118;8.714;2022-12-07T00:16:06;100395.41;;;2.86;78.58
75231;BME280;63814;50.118;8.714;2022-12-07T00:18:33;100395.38;;;2.88;78.14
75231;BME280;63814;50.118;8.714;2022-12-07T00:21:00;100401.25;;;2.94;78.34
75231;BME280;63814;50.118;8.714;2022-12-07T00:23:27;100391.72;;;2.96;78.15
75231;BME280;63814;50.118;8.714;2022-12-07T00:25:54;100390.09;;;2.92;77.85
75231;BME280;63814;50.118;8.714;2022-12-07T00:28:20;100359.25;;;2.81;77.81
75231;BME280;63814;50.118;8.714;2022-12-07T00:30:47;100381.34;;;2.96;77.95
75231;BME280;63814;50.118;8.714;2022-12-07T00:33:14;100378.63;;;3.03;77.99
75231;BME280;63814;50.118;8.714;2022-12-07T00:35:41;100380.44;;;2.99;78.22
75231;BME280;63814;50.118;8.714;2022-12-07T00:38:07;100376.16;;;2.98;78.34
75231;BME280;63814;50.118;8.714;2022-12-07T00:40:34;100363.06;;;3.03;78.70
75231;BME280;63814;50.118;8.714;2022-12-07T00:43:00;100364.09;;;2.95;78.55
75231;BME280;63814;50.118;8.714;2022-12-07T00:45:27;100368.41;;;2.96;78.85
75231;BME280;63814;50.118;8.714;2022-12-07T00:47:53;100359.16;;;2.86;79.33
75231;BME280;63814;50.118;8.714;2022-12-07T00:50:21;100355.69;;;2.85;78.95
75231;BME280;63814;50.118;8.714;2022-12-07T00:52:47;100364.34;;;2.86;78.92
75231;BME280;63814;50.118;8.714;2022-12-07T00:55:14;100366.97;;;2.83;79.20
75231;BME280;63814;50.118;8.714;2022-12-07T00:57:40;100368.75;;;2.82;79.40
75231;BME280;63814;50.118;8.714;2022-12-07T01:00:08;100361.84;;;2.81;79.42
75231;BME280;63814;50.118;8.714;2022-12-07T01:02:34;100362.78;;;2.79;79.70
75231;BME280;63814;50.118;8.714;2022-12-07T01:05:01;100369.75;;;2.75;79.66
75231;BME280;63814;50.118;8.714;2022-12-07T01:07:29;100372.41;;;2.72;79.99
75231;BME280;63814;50.118;8.714;2022-12-07T01:09:55;100372.34;;;2.75;80.48
75231;BME280;63814;50.118;8.714;2022-12-07T01:12:22;100366.56;;;2.62;81.00
75231;BME280;63814;50.118;8.714;2022-12-07T01:14:48;100369.13;;;2.65;80.87
75231;BME280;63814;50.118;8.714;2022-12-07T01:17:15;100363.97;;;2.64;80.89
75231;BME280;63814;50.118;8.714;2022-12-07T01:19:41;100351.03;;;2.62;80.86
75231;BME280;63814;50.118;8.714;2022-12-07T01:22:08;100346.88;;;2.56;80.89
75231;BME280;63814;50.118;8.714;2022-12-07T01:24:36;100346.81;;;2.59;80.69
75231;BME280;63814;50.118;8.714;2022-12-07T01:27:02;100327.97;;;2.53;80.89
75231;BME280;63814;50.118;8.714;2022-12-07T01:29:29;100338.34;;;2.51;80.90
75231;BME280;63814;50.118;8.714;2022-12-07T01:31:55;100355.53;;;2.55;80.76
75231;BME280;63814;50.118;8.714;2022-12-07T01:34:22;100345.16;;;2.55;81.14
75231;BME280;63814;50.118;8.714;2022-12-07T01:36:48;100348.78;;;2.48;81.37
75231;BME280;63814;50.118;8.714;2022-12-07T01:39:15;100351.59;;;2.37;81.88
75231;BME280;63814;50.118;8.714;2022-12-07T01:41:42;100358.25;;;2.49;81.41
75231;BME280;63814;50.118;8.714;2022-12-07T01:44:18;100356.53;;;2.50;81.46
75231;BME280;63814;50.118;8.714;2022-12-07T01:46:46;100365.19;;;2.49;81.54
75231;BME280;63814;50.118;8.714;2022-12-07T01:49:17;100359.34;;;2.39;81.50
75231;BME280;63814;50.118;8.714;2022-12-07T01:51:47;100368.69;;;2.44;81.66
75231;BME280;63814;50.118;8.714;2022-12-07T01:54:16;100366.81;;;2.51;81.13
75231;BME280;63814;50.118;8.714;2022-12-07T01:56:48;100354.91;;;2.44;81.52
75231;BME280;63814;50.118;8.714;2022-12-07T01:59:18;100360.78;;;2.52;81.17
75231;BME280;63814;50.118;8.714;2022-12-07T02:01:46;100356.56;;;2.47;81.37
75231;BME280;63814;50.118;8.714;2022-12-07T02:04:13;100354.72;;;2.53;81.33
75231;BME280;63814;50.118;8.714;2022-12-07T02:06:40;100353.09;;;2.48;81.48
75231;BME280;63814;50.118;8.714;2022-12-07T02:09:09;100347.97;;;2.46;81.87
75231;BME280;63814;50.118;8.714;2022-12-07T02:11:38;100352.31;;;2.44;81.51
75231;BME280;63814;50.118;8.714;2022-12-07T02:14:08;100340.34;;;2.40;81.51
75231;BME280;63814;50.118;8.714;2022-12-07T02:16:43;100293.72;;;2.00;82.30
75231;BME280;63814;50.118;8.714;2022-12-07T02:22:18;100331.81;;;2.35;82.50
75231;BME280;63814;50.118;8.714;2022-12-07T02:24:54;100318.19;;;2.26;82.79
75231;BME280;63814;50.118;8.714;2022-12-07T02:27:36;100325.88;;;2.29;83.37
75231;BME280;63814;50.118;8.714;2022-12-07T02:30:07;100307.97;;;2.20;82.81
75231;BME280;63814;50.118;8.714;2022-12-07T02:32:47;100320.00;;;2.23;83.00
75231;BME280;63814;50.118;8.714;2022-12-07T02:35:18;100332.13;;;2.21;83.66
75231;BME280;63814;50.118;8.714;2022-12-07T02:37:57;100318.41;;;2.17;83.25
75231;BME280;63814;50.118;8.714;2022-12-07T02:40:29;100316.53;;;2.24;82.78
75231;BME280;63814;50.118;8.714;2022-12-07T02:43:02;100311.44;;;2.19;83.08
75231;BME280;63814;50.118;8.714;2022-12-07T02:45:34;100308.88;;;2.17;82.46
75231;BME280;63814;50.118;8.714;2022-12-07T02:48:02;100322.47;;;2.27;82.68
75231;BME280;63814;50.118;8.714;2022-12-07T02:50:30;100311.38;;;2.22;82.61
75231;BME280;63814;50.118;8.714;2022-12-07T02:52:57;100325.16;;;2.23;82.55
75231;BME280;63814;50.118;8.714;2022-12-07T02:55:28;100309.91;;;2.10;82.92
75231;BME280;63814;50.118;8.714;2022-12-07T02:58:17;100321.53;;;2.31;82.53
75231;BME280;63814;50.118;8.714;2022-12-07T03:00:54;100328.66;;;2.20;82.12
75231;BME280;63814;50.118;8.714;2022-12-07T03:03:22;100310.59;;;2.18;82.93
75231;BME280;63814;50.118;8.714;2022-12-07T03:06:00;100324.19;;;2.28;82.28
75231;BME280;63814;50.118;8.714;2022-12-07T03:08:39;100304.38;;;2.27;82.65
75231;BME280;63814;50.118;8.714;2022-12-07T03:11:10;100305.16;;;2.31;82.56
75231;BME280;63814;50.118;8.714;2022-12-07T03:13:45;100300.06;;;2.26;82.49
75231;BME280;63814;50.118;8.714;2022-12-07T03:16:18;100319.84;;;2.30;82.26
75231;BME280;63814;50.118;8.714;2022-12-07T03:18:49;100299.13;;;2.30;82.35
75231;BME280;63814;50.118;8.714;2022-12-07T03:21:20;100309.31;;;2.37;82.09
75231;BME280;63814;50.118;8.714;2022-12-07T03:23:54;100307.63;;;2.36;81.70
75231;BME280;63814;50.118;8.714;2022-12-07T03:26:26;100314.59;;;2.32;82.46
75231;BME280;63814;50.118;8.714;2022-12-07T03:28:55;100313.59;;;2.39;82.58
75231;BME280;63814;50.118;8.714;2022-12-07T03:31:28;100305.03;;;2.36;81.96
75231;BME280;63814;50.118;8.714;2022-12-07T03:34:01;100311.09;;;2.35;82.13
75231;BME280;63814;50.118;8.714;2022-12-07T03:36:31;100307.44;;;2.45;81.72
75231;BME280;63814;50.118;8.714;2022-12-07T03:39:03;100305.91;;;2.36;82.04
75231;BME280;63814;50.118;8.714;2022-12-07T03:41:35;100302.44;;;2.36;82.13
75231;BME280;63814;50.118;8.714;2022-12-07T03:44:04;100299.72;;;2.42;81.76
75231;BME280;63814;50.118;8.714;2022-12-07T03:46:37;100288.72;;;2.34;81.60
75231;BME280;63814;50.118;8.714;2022-12-07T03:49:11;100303.31;;;2.36;82.34
75231;BME280;63814;50.118;8.714;2022-12-07T03:51:44;100302.53;;;2.33;81.68
75231;BME280;63814;50.118;8.714;2022-12-07T03:54:18;100304.16;;;2.37;81.81
75231;BME280;63814;50.118;8.714;2022-12-07T03:56:46;100286.88;;;2.39;81.89
75231;BME280;63814;50.118;8.714;2022-12-07T03:59:15;100305.88;;;2.38;82.09
75231;BME280;63814;50.118;8.714;2022-12-07T04:01:45;100288.63;;;2.37;82.32
75231;BME280;63814;50.118;8.714;2022-12-07T04:04:17;100292.00;;;2.40;82.39
75231;BME280;63814;50.118;8.714;2022-12-07T04:06:44;100280.91;;;2.35;82.58
75231;BME280;63814;50.118;8.714;2022-12-07T04:09:10;100289.38;;;2.42;81.88
75231;BME280;63814;50.118;8.714;2022-12-07T04:11:39;100258.69;;;2.25;81.71
75231;BME280;63814;50.118;8.714;2022-12-07T04:14:06;100293.63;;;2.44;82.25
75231;BME280;63814;50.118;8.714;2022-12-07T04:16:46;100284.19;;;2.42;81.62
75231;BME280;63814;50.118;8.714;2022-12-07T04:19:14;100274.97;;;2.31;82.10
75231;BME280;63814;50.118;8.714;2022-12-07T04:21:41;100285.09;;;2.41;82.56
75231;BME280;63814;50.118;8.714;2022-12-07T04:24:08;100294.53;;;2.43;82.47
75231;BME280;63814;50.118;8.714;2022-12-07T04:26:35;100291.94;;;2.43;82.47
75231;BME280;63814;50.118;8.714;2022-12-07T04:29:02;100273.25;;;2.30;82.01
75231;BME280;63814;50.118;8.714;2022-12-07T04:31:29;100289.34;;;2.43;82.00
75231;BME280;63814;50.118;8.714;2022-12-07T04:33:57;100285.53;;;2.58;81.85
75231;BME280;63814;50.118;8.714;2022-12-07T04:36:24;100274.41;;;2.55;81.83
75231;BME280;63814;50.118;8.714;2022-12-07T04:38:52;100290.00;;;2.53;81.09
75231;BME280;63814;50.118;8.714;2022-12-07T04:41:19;100299.25;;;2.64;81.24
75231;BME280;63814;50.118;8.714;2022-12-07T04:43:52;100288.06;;;2.62;81.40
75231;BME280;63814;50.118;8.714;2022-12-07T04:46:19;100286.31;;;2.62;81.36
75231;BME280;63814;50.118;8.714;2022-12-07T04:48:46;100226.81;;;2.24;81.14
75231;BME280;63814;50.118;8.714;2022-12-07T04:51:15;100276.97;;;2.56;81.52
75231;BME280;63814;50.118;8.714;2022-12-07T04:53:44;100270.97;;;2.54;81.31
75231;BME280;63814;50.118;8.714;2022-12-07T04:56:11;100268.38;;;2.56;81.47
75231;BME280;63814;50.118;8.714;2022-12-07T04:58:38;100245.59;;;2.33;81.37
75231;BME280;63814;50.118;8.714;2022-12-07T05:01:05;100285.53;;;2.58;81.85
75231;BME280;63814;50.118;8.714;2022-12-07T05:03:31;100267.50;;;2.55;81.55
75231;BME280;63814;50.118;8.714;2022-12-07T05:05:58;100269.09;;;2.61;81.54
75231;BME280;63814;50.118;8.714;2022-12-07T05:08:26;100271.63;;;2.64;81.39
75231;BME280;63814;50.118;8.714;2022-12-07T05:10:53;100257.50;;;2.40;81.79
75231;BME280;63814;50.118;8.714;2022-12-07T05:13:20;100263.25;;;2.53;81.70
75231;BME280;63814;50.118;8.714;2022-12-07T05:15:47;100257.19;;;2.54;81.37
75231;BME280;63814;50.118;8.714;2022-12-07T05:18:15;100272.53;;;2.62;81.66
75231;BME280;63814;50.118;8.714;2022-12-07T05:20:42;100267.66;;;2.48;81.98
75231;BME280;63814;50.118;8.714;2022-12-07T05:23:10;100281.34;;;2.54;82.35
75231;BME280;63814;50.118;8.714;2022-12-07T05:25:39;100290.81;;;2.55;82.14
75231;BME280;63814;50.118;8.714;2022-12-07T05:28:05;100284.69;;;2.59;82.09
75231;BME280;63814;50.118;8.714;2022-12-07T05:30:32;100287.06;;;2.67;81.56
75231;BME280;63814;50.118;8.714;2022-12-07T05:32:59;100284.59;;;2.63;81.82
75231;BME280;63814;50.118;8.714;2022-12-07T05:35:26;100280.31;;;2.62;81.99
75231;BME280;63814;50.118;8.714;2022-12-07T05:37:52;100287.13;;;2.66;82.20
75231;BME280;63814;50.118;8.714;2022-12-07T05:40:19;100274.00;;;2.72;81.32
75231;BME280;63814;50.118;8.714;2022-12-07T05:42:47;100281.78;;;2.72;82.24
75231;BME280;63814;50.118;8.714;2022-12-07T05:45:14;100265.56;;;2.64;82.01
75231;BME280;63814;50.118;8.714;2022-12-07T05:47:40;100277.50;;;2.71;82.24
75231;BME280;63814;50.118;8.714;2022-12-07T05:50:07;100275.88;;;2.67;81.99
75231;BME280;63814;50.118;8.714;2022-12-07T05:52:34;100274.09;;;2.69;81.98
75231;BME280;63814;50.118;8.714;2022-12-07T05:55:01;100272.53;;;2.62;82.16
75231;BME280;63814;50.118;8.714;2022-12-07T05:57:27;100200.84;;;2.29;82.09
75231;BME280;63814;50.118;8.714;2022-12-07T05:59:56;100273.16;;;2.71;81.59
75231;BME280;63814;50.118;8.714;2022-12-07T06:02:21;100270.59;;;2.71;81.98
75231;BME280;63814;50.118;8.714;2022-12-07T06:04:48;100271.38;;;2.73;82.02
75231;BME280;63814;50.118;8.714;2022-12-07T06:07:16;100264.63;;;2.68;82.10
75231;BME280;63814;50.118;8.714;2022-12-07T06:09:43;100272.97;;;2.79;82.28
75231;BME280;63814;50.118;8.714;2022-12-07T06:12:10;100276.59;;;2.72;82.46
75231;BME280;63814;50.118;8.714;2022-12-07T06:14:56;100263.88;;;2.63;81.94
75231;BME280;63814;50.118;8.714;2022-12-07T06:17:23;100270.50;;;2.75;82.30
75231;BME280;63814;50.118;8.714;2022-12-07T06:19:50;100255.09;;;2.68;82.03
75231;BME280;63814;50.118;8.714;2022-12-07T06:22:17;100256.78;;;2.71;82.03
75231;BME280;63814;50.118;8.714;2022-12-07T06:24:44;100268.81;;;2.73;82.01
75231;BME280;63814;50.118;8.714;2022-12-07T06:27:11;100272.25;;;2.74;82.68
75231;BME280;63814;50.118;8.714;2022-12-07T06:29:38;100266.25;;;2.72;82.07
75231;BME280;63814;50.118;8.714;2022-12-07T06:32:06;100282.47;;;2.80;82.19
75231;BME280;63814;50.118;8.714;2022-12-07T06:34:32;100278.97;;;2.81;82.18
75231;BME280;63814;50.118;8.714;2022-12-07T06:36:59;100273.03;;;2.78;82.08
75231;BME280;63814;50.118;8.714;2022-12-07T06:39:27;100271.06;;;2.88;82.11
75231;BME280;63814;50.118;8.714;2022-12-07T06:41:55;100281.50;;;2.83;82.20
75231;BME280;63814;50.118;8.714;2022-12-07T06:44:22;100262.81;;;2.71;82.29
75231;BME280;63814;50.118;8.714;2022-12-07T06:46:49;100276.31;;;2.84;82.14
75231;BME280;63814;50.118;8.714;2022-12-07T06:49:17;100277.19;;;2.83;82.08
75231;BME280;63814;50.118;8.714;2022-12-07T06:51:43;100272.09;;;2.80;82.18
75231;BME280;63814;50.118;8.714;2022-12-07T06:54:12;100277.03;;;2.90;82.06
75231;BME280;63814;50.118;8.714;2022-12-07T06:56:38;100282.06;;;2.96;81.87
75231;BME280;63814;50.118;8.714;2022-12-07T06:59:07;100287.13;;;3.00;81.53
75231;BME280;63814;50.118;8.714;2022-12-07T07:01:34;100283.00;;;2.93;81.88
75231;BME280;63814;50.118;8.714;2022-12-07T07:04:01;100286.44;;;2.94;81.90
75231;BME280;63814;50.118;8.714;2022-12-07T07:06:29;100293.25;;;2.98;81.58
75231;BME280;63814;50.118;8.714;2022-12-07T07:08:56;100289.91;;;2.93;82.06
75231;BME280;63814;50.118;8.714;2022-12-07T07:11:22;100280.53;;;2.89;81.96
75231;BME280;63814;50.118;8.714;2022-12-07T07:13:49;100292.44;;;2.96;81.78
75231;BME280;63814;50.118;8.714;2022-12-07T07:16:16;100295.75;;;3.01;81.67
75231;BME280;63814;50.118;8.714;2022-12-07T07:18:42;100278.75;;;2.91;81.92
75231;BME280;63814;50.118;8.714;2022-12-07T07:21:09;100309.53;;;3.03;81.89
75231;BME280;63814;50.118;8.714;2022-12-07T07:23:37;100299.31;;;2.97;81.63
75231;BME280;63814;50.118;8.714;2022-12-07T07:26:03;100304.38;;;3.02;81.73
75231;BME280;63814;50.118;8.714;2022-12-07T07:28:30;100217.66;;;2.47;81.42
75231;BME280;63814;50.118;8.714;2022-12-07T07:30:57;100293.88;;;3.08;81.70
75231;BME280;63814;50.118;8.714;2022-12-07T07:33:23;100298.84;;;3.16;81.53
75231;BME280;63814;50.118;8.714;2022-12-07T07:35:50;100304.75;;;3.21;81.82
75231;BME280;63814;50.118;8.714;2022-12-07T07:38:16;100302.09;;;3.24;81.94
75231;BME280;63814;50.118;8.714;2022-12-07T07:40:44;100299.09;;;3.39;80.70
75231;BME280;63814;50.118;8.714;2022-12-07T07:43:11;100299.75;;;3.48;80.56
75231;BME280;63814;50.118;8.714;2022-12-07T07:45:37;100303.22;;;3.47;79.99
75231;BME280;63814;50.118;8.714;2022-12-07T07:48:04;100300.78;;;3.42;80.06
75231;BME280;63814;50.118;8.714;2022-12-07T07:50:30;100288.59;;;3.44;79.88
75231;BME280;63814;50.118;8.714;2022-12-07T07:52:57;100305.66;;;3.53;80.04
75231;BME280;63814;50.118;8.714;2022-12-07T07:55:24;100299.47;;;3.57;79.44
75231;BME280;63814;50.118;8.714;2022-12-07T07:57:52;100311.72;;;3.52;79.57
75231;BME280;63814;50.118;8.714;2022-12-07T08:00:19;100312.06;;;3.39;79.65
75231;BME280;63814;50.118;8.714;2022-12-07T08:02:45;100312.13;;;3.36;80.35
75231;BME280;63814;50.118;8.714;2022-12-07T08:05:12;100308.78;;;3.33;80.50
75231;BME280;63814;50.118;8.714;2022-12-07T08:07:39;100314.59;;;3.41;79.52
75231;BME280;63814;50.118;8.714;2022-12-07T08:10:07;100308.09;;;3.26;80.31
75231;BME280;63814;50.118;8.714;2022-12-07T08:12:36;100198.25;;;2.64;80.31
75231;BME280;63814;50.118;8.714;2022-12-07T08:15:25;100307.97;;;3.31;80.62
75231;BME280;63814;50.118;8.714;2022-12-07T08:17:52;100311.19;;;3.39;79.90
75231;BME280;63814;50.118;8.714;2022-12-07T08:20:18;100298.47;;;3.31;80.14
75231;BME280;63814;50.118;8.714;2022-12-07T08:22:45;100309.69;;;3.30;80.07
75231;BME280;63814;50.118;8.714;2022-12-07T08:25:11;100316.41;;;3.37;79.73
75231;BME280;63814;50.118;8.714;2022-12-07T08:27:38;100266.16;;;3.10;79.50
75231;BME280;63814;50.118;8.714;2022-12-07T08:30:06;100317.41;;;3.33;79.83
75231;BME280;63814;50.118;8.714;2022-12-07T08:32:33;100318.31;;;3.32;79.92
75231;BME280;63814;50.118;8.714;2022-12-07T08:35:00;100325.25;;;3.30;80.02
75231;BME280;63814;50.118;8.714;2022-12-07T08:37:26;100325.22;;;3.32;80.26
75231;BME280;63814;50.118;8.714;2022-12-07T08:39:53;100313.13;;;3.32;80.39
75231;BME280;63814;50.118;8.714;2022-12-07T08:42:20;100310.38;;;3.38;79.51
75231;BME280;63814;50.118;8.714;2022-12-07T08:44:48;100312.88;;;3.41;79.71
75231;BME280;63814;50.118;8.714;2022-12-07T08:47:14;100311.19;;;3.39;79.42
75231;BME280;63814;50.118;8.714;2022-12-07T08:49:45;100313.75;;;3.40;79.84
75231;BME280;63814;50.118;8.714;2022-12-07T08:52:13;100322.19;;;3.49;79.06
75231;BME280;63814;50.118;8.714;2022-12-07T08:54:40;100323.25;;;3.41;79.41
75231;BME280;63814;50.118;8.714;2022-12-07T08:57:08;100323.25;;;3.41;79.16
75231;BME280;63814;50.118;8.714;2022-12-07T08:59:37;100322.28;;;3.46;79.36
75231;BME280;63814;50.118;8.714;2022-12-07T09:02:03;100322.09;;;3.52;79.36
75231;BME280;63814;50.118;8.714;2022-12-07T09:04:30;100319.47;;;3.53;79.34
75231;BME280;63814;50.118;8.714;2022-12-07T09:06:58;100317.97;;;3.45;79.21
75231;BME280;63814;50.118;8.714;2022-12-07T09:09:25;100300.00;;;3.38;79.14
75231;BME280;63814;50.118;8.714;2022-12-07T09:11:51;100319.50;;;3.52;79.27
75231;BME280;63814;50.118;8.714;2022-12-07T09:14:18;100304.13;;;3.46;78.55
75231;BME280;63814;50.118;8.714;2022-12-07T09:16:45;100314.09;;;3.61;78.68
75231;BME280;63814;50.118;8.714;2022-12-07T09:19:11;100314.25;;;3.55;78.07
75231;BME280;63814;50.118;8.714;2022-12-07T09:21:38;100309.66;;;3.65;78.11
75231;BME280;63814;50.118;8.714;2022-12-07T09:24:06;100307.72;;;3.72;78.11
75231;BME280;63814;50.118;8.714;2022-12-07T09:26:34;100294.13;;;3.63;77.29
75231;BME280;63814;50.118;8.714;2022-12-07T09:29:02;100321.34;;;3.80;77.57
75231;BME280;63814;50.118;8.714;2022-12-07T09:31:29;100316.34;;;3.74;77.67
75231;BME280;63814;50.118;8.714;2022-12-07T09:33:56;100321.00;;;3.92;77.16
75231;BME280;63814;50.118;8.714;2022-12-07T09:36:23;100327.66;;;4.01;77.15
75231;BME280;63814;50.118;8.714;2022-12-07T09:38:49;100328.44;;;4.05;77.26
75231;BME280;63814;50.118;8.714;2022-12-07T09:41:17;100329.34;;;4.04;77.31
75231;BME280;63814;50.118;8.714;2022-12-07T09:43:44;100330.75;;;4.14;75.93
75231;BME280;63814;50.118;8.714;2022-12-07T09:46:14;100333.78;;;4.29;75.09
75231;BME280;63814;50.118;8.714;2022-12-07T09:48:43;100330.13;;;4.36;74.54
75231;BME280;63814;50.118;8.714;2022-12-07T09:51:14;100311.50;;;4.21;75.00
75231;BME280;63814;50.118;8.714;2022-12-07T09:53:42;100335.59;;;4.27;74.57
75231;BME280;63814;50.118;8.714;2022-12-07T09:56:11;100315.72;;;4.26;74.72
75231;BME280;63814;50.118;8.714;2022-12-07T09:58:41;100313.31;;;4.48;73.70
75231;BME280;63814;50.118;8.714;2022-12-07T10:01:11;100307.09;;;4.54;73.77
75231;BME280;63814;50.118;8.714;2022-12-07T10:03:40;100306.50;;;4.45;74.07
75231;BME280;63814;50.118;8.714;2022-12-07T10:06:11;100309.78;;;4.50;74.15
75231;BME280;63814;50.118;8.714;2022-12-07T10:08:38;100297.59;;;4.53;74.76
75231;BME280;63814;50.118;8.714;2022-12-07T10:11:06;100307.84;;;4.57;74.30
75231;BME280;63814;50.118;8.714;2022-12-07T10:13:37;100303.00;;;4.73;74.24
75231;BME280;63814;50.118;8.714;2022-12-07T10:16:06;100306.31;;;4.78;73.43
75231;BME280;63814;50.118;8.714;2022-12-07T10:18:34;100300.13;;;4.83;73.19
75231;BME280;63814;50.118;8.714;2022-12-07T10:21:10;100303.28;;;4.93;72.51
75231;BME280;63814;50.118;8.714;2022-12-07T10:23:39;100304.34;;;5.12;71.81
75231;BME280;63814;50.118;8.714;2022-12-07T10:26:29;100295.91;;;5.05;71.95
75231;BME280;63814;50.118;8.714;2022-12-07T10:28:56;100295.00;;;5.07;71.92
75231;BME280;63814;50.118;8.714;2022-12-07T10:31:26;100286.81;;;4.92;72.61
75231;BME280;63814;50.118;8.714;2022-12-07T10:33:54;100297.97;;;4.96;71.89
75231;BME280;63814;50.118;8.714;2022-12-07T10:36:24;100287.59;;;4.94;71.57
75231;BME280;63814;50.118;8.714;2022-12-07T10:38:53;100288.44;;;4.96;70.29
75231;BME280;63814;50.118;8.714;2022-12-07T10:41:24;100285.00;;;4.94;69.33
75231;BME280;63814;50.118;8.714;2022-12-07T10:43:53;100296.84;;;5.03;68.99
75231;BME280;63814;50.118;8.714;2022-12-07T10:49:34;100281.19;;;5.31;67.23
75231;BME280;63814;50.118;8.714;2022-12-07T10:52:11;100281.41;;;5.49;65.59
75231;BME280;63814;50.118;8.714;2022-12-07T10:54:46;100270.22;;;5.47;65.60
75231;BME280;63814;50.118;8.714;2022-12-07T10:57:25;100272.13;;;5.42;65.24
75231;BME280;63814;50.118;8.714;2022-12-07T11:00:04;100261.31;;;5.54;65.26
75231;BME280;63814;50.118;8.714;2022-12-07T11:02:44;100270.34;;;5.68;65.47
75231;BME280;63814;50.118;8.714;2022-12-07T11:05:19;100259.81;;;6.63;61.80
75231;BME280;63814;50.118;8.714;2022-12-07T11:07:59;100256.19;;;7.09;59.73
75231;BME280;63814;50.118;8.714;2022-12-07T11:10:32;100258.31;;;6.78;60.40
75231;BME280;63814;50.118;8.714;2022-12-07T11:13:17;100246.00;;;7.83;58.49
75231;BME280;63814;50.118;8.714;2022-12-07T11:16:01;100249.19;;;7.70;57.73
75231;BME280;63814;50.118;8.714;2022-12-07T11:18:36;100242.53;;;7.44;58.86
75231;BME280;63814;50.118;8.714;2022-12-07T11:21:09;100229.44;;;7.25;59.29
75231;BME280;63814;50.118;8.714;2022-12-07T11:23:46;100251.88;;;6.87;59.73
75231;BME280;63814;50.118;8.714;2022-12-07T11:26:20;100245.81;;;6.44;61.86
75231;BME280;63814;50.118;8.714;2022-12-07T11:29:04;100237.25;;;5.95;62.21
75231;BME280;63814;50.118;8.714;2022-12-07T11:31:37;100240.88;;;5.67;64.97
75231;BME280;63814;50.118;8.714;2022-12-07T11:34:09;100224.06;;;5.52;65.13
75231;BME280;63814;50.118;8.714;2022-12-07T11:36:41;100230.66;;;5.63;64.55
75231;BME280;63814;50.118;8.714;2022-12-07T11:39:17;100196.84;;;5.39;64.52
75231;BME280;63814;50.118;8.714;2022-12-07T11:41:50;100235.06;;;5.61;64.04
75231;BME280;63814;50.118;8.714;2022-12-07T11:44:26;100223.41;;;5.71;63.43
75231;BME280;63814;50.118;8.714;2022-12-07T11:47:01;100226.41;;;5.60;64.05
75231;BME280;63814;50.118;8.714;2022-12-07T11:49:43;100231.59;;;5.60;63.59
75231;BME280;63814;50.118;8.714;2022-12-07T11:52:18;100219.84;;;5.73;63.97
75231;BME280;63814;50.118;8.714;2022-12-07T11:54:47;100219.78;;;5.75;63.44
75231;BME280;63814;50.118;8.714;2022-12-07T11:57:19;100214.19;;;5.86;64.05
75231;BME280;63814;50.118;8.714;2022-12-07T11:59:49;100207.34;;;5.83;63.63
75231;BME280;63814;50.118;8.714;2022-12-07T12:02:22;100206.06;;;5.94;62.32
75231;BME280;63814;50.118;8.714;2022-12-07T12:04:55;100202.59;;;6.81;60.21
75231;BME280;63814;50.118;8.714;2022-12-07T12:07:26;100138.38;;;8.32;54.55
75231;BME280;63814;50.118;8.714;2022-12-07T12:09:55;100184.16;;;10.08;49.68
75231;BME280;63814;50.118;8.714;2022-12-07T12:12:35;100178.63;;;10.29;48.58
75231;BME280;63814;50.118;8.714;2022-12-07T12:15:26;100182.34;;;9.28;50.78
75231;BME280;63814;50.118;8.714;2022-12-07T12:18:08;100179.59;;;8.08;53.81
75231;BME280;63814;50.118;8.714;2022-12-07T12:20:43;100176.50;;;7.42;56.14
75231;BME280;63814;50.118;8.714;2022-12-07T12:23:14;100178.47;;;7.17;57.14
75231;BME280;63814;50.118;8.714;2022-12-07T12:25:45;100171.41;;;6.79;57.86
75231;BME280;63814;50.118;8.714;2022-12-07T12:28:24;100172.88;;;6.44;59.03
75231;BME280;63814;50.118;8.714;2022-12-07T12:31:07;100178.88;;;6.25;59.43
75231;BME280;63814;50.118;8.714;2022-12-07T12:33:36;100173.34;;;6.10;60.77
75231;BME280;63814;50.118;8.714;2022-12-07T12:36:24;100177.03;;;6.27;59.82
75231;BME280;63814;50.118;8.714;2022-12-07T12:39:08;100165.59;;;6.09;60.38
75231;BME280;63814;50.118;8.714;2022-12-07T12:41:56;100160.75;;;6.22;61.15
75231;BME280;63814;50.118;8.714;2022-12-07T12:44:40;100173.22;;;6.98;59.85
75231;BME280;63814;50.118;8.714;2022-12-07T12:50:15;100148.34;;;7.87;54.92
75231;BME280;63814;50.118;8.714;2022-12-07T12:52:51;100160.28;;;7.16;56.95
75231;BME280;63814;50.118;8.714;2022-12-07T12:55:45;100151.50;;;6.58;59.65
75231;BME280;63814;50.118;8.714;2022-12-07T12:58:33;100163.09;;;6.28;60.63
75231;BME280;63814;50.118;8.714;2022-12-07T13:04:17;100158.13;;;5.77;63.16
75231;BME280;63814;50.118;8.714;2022-12-07T13:06:45;100110.78;;;5.45;64.01
75231;BME280;63814;50.118;8.714;2022-12-07T13:09:21;100155.78;;;5.93;63.49
75231;BME280;63814;50.118;8.714;2022-12-07T13:11:56;100146.66;;;6.05;62.65
75231;BME280;63814;50.118;8.714;2022-12-07T13:14:53;100151.81;;;6.27;62.46
75231;BME280;63814;50.118;8.714;2022-12-07T13:18:00;100149.06;;;6.53;62.16
75231;BME280;63814;50.118;8.714;2022-12-07T13:20:53;100145.91;;;6.45;62.60
75231;BME280;63814;50.118;8.714;2022-12-07T13:23:23;100159.94;;;6.63;62.85
75231;BME280;63814;50.118;8.714;2022-12-07T13:26:06;100146.91;;;6.84;64.34
75231;BME280;63814;50.118;8.714;2022-12-07T13:28:39;100147.53;;;7.29;61.13